Terminal Aerodrome Forecast
Issued by NWS Upton, NY

Home | Current Version | Previous Version | Text Only | Print | Product List | Glossary On
Versions: 1 2 3 4 5 6 7 8 9 10 11 12 13 14 15 16 17 18 19 20 21 22 23 24 25 26 27 28 29 30 31 32 33 34 35 36 37
000
FTUS41 KOKX 200234 AAA
TAFBDR
TAF AMD
KBDR 200234Z 2003/2024 01003KT P6SM BKN035
     FM200500 01003KT P6SM SCT025 SCT250
     FM201600 10005KT P6SM SCT020 BKN200
     FM201800 13006KT P6SM BKN020 BKN200
     FM202300 14005KT 4SM -RA BR OVC020=

USA.gov is the U.S. government's official web portal to all federal, state and local government web resources and services.